Kezdőlap
METAR-TAF:

METAR-TAF

Repülőterek :

Nador, Marokkó

földrajzi szélesség: 34-59-20N, földrajzi hosszúság: 003-01-42W, magasság: 175 m

Jelenlegi meteorológiai megfigyelések

A jelentés 1 órával és 5 perccel ezelõtt készült, 05:00 UTC
Északkeleti szél 5 kt
Hőmérséklet 18°C
Páratartalom 52%
Légköri nyomás 1014 hPa
Látótávolság 10 km, vagy több
felhőtlen 1500 m magasságban, és nincs gomolyfelhõ

METAR: GMMW 230500Z 05005KT CAVOK 18/08 Q1014 NOSIG

Idő: 07:05 (06:05 UTC)

Előrejelzés

A jelentés 1 órával és 5 perccel ezelõtt készült, 05:00 UTC
Az előrejelzés 23-én 06 óra UTC és 24-én 12 óra UTC között érvényes
Különbözõ irányokból fújó szél 2 kt
Látótávolság 10 km, vagy több
felhőtlen 1500 m magasságban, és nincs gomolyfelhõ

TAF: GMMW 230500Z 2306/2412 VRB02KT CAVOK

Meteorológiai megfigyelések és előrejelzések több, mint 4000 repülőtéren (METAR és TAF jelentéseket).

A térképen piros és sárga pontok jelzik az elérhető meteorológiai állomásokat.

Mozgassa az egeret a pont fölött, hogy megjelenjen az állomás neve.

Azután kattintson az időjárási megfigyelések és előrejelzések megtekintéséhez.

A térkép megváltoztatása: kattintson a fekete keresztel jelölt zöld gombra ráközelítéshez, a vonallal jelölt zöld gombra távolításhoz, vagy a zöld nyilakra a szomszédos térképek eléréséhez.


METAR-TAF: